createdAt,value
2018-08-16T00:00:23.869Z,94705.81
2018-08-16T00:02:53.149Z,94701.06
2018-08-16T00:05:21.915Z,94701.98
2018-08-16T00:07:50.772Z,94701.91
2018-08-16T00:10:20.013Z,94704.50
2018-08-16T00:12:49.862Z,94694.03
2018-08-16T00:15:20.035Z,94689.05
2018-08-16T00:17:48.875Z,94694.00
2018-08-16T00:20:17.776Z,94691.64
2018-08-16T00:22:47.245Z,94687.21
2018-08-16T00:25:16.741Z,94691.91
2018-08-16T00:27:45.655Z,94695.09
2018-08-16T00:30:17.901Z,94691.03
2018-08-16T00:32:47.241Z,94691.95
2018-08-16T00:35:16.181Z,94695.17
2018-08-16T00:37:45.231Z,94694.38
2018-08-16T00:40:17.565Z,94696.58
2018-08-16T00:42:46.360Z,94695.05
2018-08-16T00:45:15.576Z,94694.84
2018-08-16T00:47:44.636Z,94697.17
2018-08-16T00:50:15.006Z,94699.20
2018-08-16T00:52:43.831Z,94689.86
2018-08-16T00:55:14.220Z,94693.98
2018-08-16T00:57:43.515Z,94696.27
2018-08-16T01:00:17.922Z,94699.08
2018-08-16T01:02:47.188Z,94705.34
2018-08-16T01:05:16.034Z,94705.73
2018-08-16T01:07:44.821Z,94697.51
2018-08-16T01:10:14.669Z,94704.23
2018-08-16T01:12:44.328Z,94703.06
2018-08-16T01:15:16.243Z,94707.38
2018-08-16T01:17:45.072Z,94702.30
2018-08-16T01:20:13.933Z,94703.08
2018-08-16T01:22:43.036Z,94703.94
2018-08-16T01:25:12.608Z,94704.41
2018-08-16T01:27:41.503Z,94699.48
2018-08-16T01:30:11.238Z,94704.34
2018-08-16T01:32:40.063Z,94699.13
2018-08-16T01:35:09.948Z,94703.28
2018-08-16T01:37:39.212Z,94697.09
2018-08-16T01:40:09.233Z,94700.45
2018-08-16T01:42:38.849Z,94701.38
2018-08-16T01:45:08.145Z,94698.06
2018-08-16T01:47:36.964Z,94694.78
2018-08-16T01:50:07.620Z,94693.25
2018-08-16T01:52:36.340Z,94694.11
2018-08-16T01:55:05.931Z,94696.47
2018-08-16T01:57:35.178Z,94690.72
2018-08-16T02:00:05.630Z,94690.72
2018-08-16T02:02:34.440Z,94696.87
2018-08-16T02:05:03.806Z,94696.37
2018-08-16T02:07:32.654Z,94703.37
2018-08-16T02:10:01.640Z,94701.83
2018-08-16T02:12:30.410Z,94702.80
2018-08-16T02:14:59.242Z,94702.69
2018-08-16T02:17:28.527Z,94705.74
2018-08-16T02:19:57.291Z,94704.37
2018-08-16T02:22:25.982Z,94702.36
2018-08-16T02:24:54.867Z,94706.85
2018-08-16T02:27:23.669Z,94708.70
2018-08-16T02:29:52.455Z,94707.54
2018-08-16T02:32:21.608Z,94709.74
2018-08-16T02:34:50.607Z,94716.60
2018-08-16T02:37:19.726Z,94715.66
2018-08-16T02:39:49.151Z,94713.66
2018-08-16T02:42:17.847Z,94709.95
2018-08-16T02:44:46.662Z,94719.14
2018-08-16T02:47:15.678Z,94716.50
2018-08-16T02:49:44.355Z,94713.44
2018-08-16T02:52:13.010Z,94713.23
2018-08-16T02:54:42.460Z,94714.86
2018-08-16T02:57:11.405Z,94713.88
2018-08-16T02:59:40.226Z,94719.41
2018-08-16T03:02:09.268Z,94715.50
2018-08-16T03:04:37.980Z,94717.70
2018-08-16T03:07:07.295Z,94710.06
2018-08-16T03:09:35.959Z,94716.88
2018-08-16T03:12:04.907Z,94712.70
2018-08-16T03:14:34.330Z,94709.02
2018-08-16T03:17:03.245Z,94710.59
2018-08-16T03:19:31.979Z,94714.77
2018-08-16T03:22:00.803Z,94711.52
2018-08-16T03:24:29.859Z,94720.56
2018-08-16T03:26:58.672Z,94715.59
2018-08-16T03:29:27.637Z,94722.09
2018-08-16T03:31:56.505Z,94723.31
2018-08-16T03:34:25.226Z,94722.56
2018-08-16T03:36:54.386Z,94725.69
2018-08-16T03:39:23.672Z,94735.13
2018-08-16T03:41:58.147Z,94747.51
2018-08-16T03:44:27.698Z,94748.30
2018-08-16T03:46:56.478Z,94747.39
2018-08-16T03:49:25.222Z,94751.30
2018-08-16T03:51:53.977Z,94750.91
2018-08-16T03:54:23.119Z,94747.71
2018-08-16T03:56:51.972Z,94759.70
2018-08-16T03:59:21.273Z,94763.42
2018-08-16T04:01:50.078Z,94762.86
2018-08-16T04:04:19.334Z,94758.82
2018-08-16T04:06:48.378Z,94759.66
2018-08-16T04:09:17.560Z,94761.23
2018-08-16T04:11:46.700Z,94761.80
2018-08-16T04:14:16.086Z,94758.94
2018-08-16T04:16:44.822Z,94759.81
2018-08-16T04:19:13.485Z,94766.61
2018-08-16T04:21:42.672Z,94766.11
2018-08-16T04:24:11.547Z,94759.99
2018-08-16T04:26:40.511Z,94762.00
2018-08-16T04:29:10.227Z,94763.50
2018-08-16T04:31:39.105Z,94769.48
2018-08-16T04:34:08.074Z,94770.98
2018-08-16T04:36:37.319Z,94766.73
2018-08-16T04:39:08.242Z,94768.88
2018-08-16T04:41:37.949Z,94762.99
2018-08-16T04:44:06.733Z,94768.88
2018-08-16T04:46:35.520Z,94769.28
2018-08-16T04:49:04.698Z,94768.02
2018-08-16T04:51:33.465Z,94769.34
2018-08-16T04:54:02.203Z,94766.82
2018-08-16T04:56:31.295Z,94771.94
2018-08-16T04:59:00.009Z,94766.59
2018-08-16T05:01:28.641Z,94758.47
2018-08-16T05:03:57.610Z,94774.42
2018-08-16T05:06:26.766Z,94767.29
2018-08-16T05:08:55.539Z,94780.97
2018-08-16T05:11:24.817Z,94786.31
2018-08-16T05:13:53.443Z,94784.90
2018-08-16T05:16:22.529Z,94776.48
2018-08-16T05:18:51.603Z,94781.56
2018-08-16T05:21:20.231Z,94775.70
2018-08-16T05:23:49.359Z,94781.22
2018-08-16T05:26:18.840Z,94787.38
2018-08-16T05:28:47.887Z,94789.55
2018-08-16T05:31:16.643Z,94778.39
2018-08-16T05:33:45.598Z,94782.59
2018-08-16T05:36:14.792Z,94782.27
2018-08-16T05:38:43.585Z,94774.61
2018-08-16T05:41:12.882Z,94776.89
2018-08-16T05:43:41.911Z,94776.00
2018-08-16T05:46:10.527Z,94777.77
2018-08-16T05:48:39.245Z,94783.41
2018-08-16T05:51:08.247Z,94780.63
2018-08-16T05:53:37.301Z,94779.05
2018-08-16T05:56:06.287Z,94776.06
2018-08-16T05:58:35.127Z,94786.68
2018-08-16T06:01:04.319Z,94784.00
2018-08-16T06:03:33.407Z,94786.73
2018-08-16T06:06:02.365Z,94782.94
2018-08-16T06:08:31.133Z,94783.72
2018-08-16T06:10:59.991Z,94785.21
2018-08-16T06:13:29.192Z,94784.88
2018-08-16T06:15:57.979Z,94780.59
2018-08-16T06:18:26.917Z,94785.39
2018-08-16T06:20:55.907Z,94787.31
2018-08-16T06:23:24.957Z,94777.66
2018-08-16T06:25:53.775Z,94783.49
2018-08-16T06:28:22.896Z,94779.63
2018-08-16T06:30:52.152Z,94773.79
2018-08-16T06:33:21.168Z,94774.91
2018-08-16T06:35:50.377Z,94771.38
2018-08-16T06:38:19.222Z,94779.37
2018-08-16T06:40:47.977Z,94767.33
2018-08-16T06:43:17.058Z,94771.68
2018-08-16T06:45:46.152Z,94774.39
2018-08-16T06:48:14.891Z,94767.38
2018-08-16T06:50:43.722Z,94758.70
2018-08-16T06:53:13.118Z,94765.37
2018-08-16T06:55:42.076Z,94770.31
2018-08-16T06:58:10.887Z,94771.23
2018-08-16T07:00:40.315Z,94772.15
2018-08-16T07:03:10.069Z,94767.27
2018-08-16T07:05:39.232Z,94771.77
2018-08-16T07:08:08.248Z,94772.12
2018-08-16T07:10:37.203Z,94778.19
2018-08-16T07:13:06.283Z,94773.14
2018-08-16T07:15:35.095Z,94774.66
2018-08-16T07:18:03.886Z,94766.03
2018-08-16T07:20:32.666Z,94761.43
2018-08-16T07:23:01.986Z,94771.66
2018-08-16T07:25:30.818Z,94771.05
2018-08-16T07:27:59.676Z,94769.30
2018-08-16T07:30:28.977Z,94771.04
2018-08-16T07:32:58.068Z,94770.47
2018-08-16T07:35:27.333Z,94764.34
2018-08-16T07:37:56.547Z,94763.65
2018-08-16T07:40:25.508Z,94756.53
2018-08-16T07:42:54.415Z,94758.89
2018-08-16T07:45:23.142Z,94747.29
2018-08-16T07:47:51.948Z,94760.43
2018-08-16T07:50:20.690Z,94755.00
2018-08-16T07:52:49.811Z,94755.16
2018-08-16T07:55:18.660Z,94757.53
2018-08-16T07:57:47.552Z,94760.45
2018-08-16T08:00:18.527Z,94758.13
2018-08-16T08:02:47.578Z,94751.73
2018-08-16T08:05:16.484Z,94749.39
2018-08-16T08:07:45.903Z,94749.29
2018-08-16T08:10:14.830Z,94741.59
2018-08-16T08:12:43.702Z,94742.83
2018-08-16T08:15:14.226Z,94745.61
2018-08-16T08:17:43.055Z,94743.26
2018-08-16T08:20:13.986Z,94747.50
2018-08-16T08:22:43.257Z,94748.70
2018-08-16T08:25:13.512Z,94740.81
2018-08-16T08:27:42.553Z,94739.56
2018-08-16T08:30:14.488Z,94733.17
2018-08-16T08:32:43.668Z,94731.08
2018-08-16T08:35:12.809Z,94733.16
2018-08-16T08:38:17.947Z,94726.46
2018-08-16T08:40:46.919Z,94724.38
2018-08-16T08:44:26.888Z,94732.42
2018-08-16T08:46:55.603Z,94731.75
2018-08-16T08:49:24.286Z,94730.57
2018-08-16T08:51:54.455Z,94732.84
2018-08-16T08:54:39.634Z,94720.72
2018-08-16T08:57:19.948Z,94726.02
2018-08-16T08:59:48.700Z,94722.73
2018-08-16T09:02:17.536Z,94727.69
2018-08-16T09:04:47.376Z,94725.44
2018-08-16T09:07:17.408Z,94718.27
2018-08-16T09:11:03.461Z,94725.20
2018-08-16T09:13:43.736Z,94722.47
2018-08-16T09:16:21.325Z,94724.44
2018-08-16T09:18:50.611Z,94719.41
2018-08-16T09:21:19.728Z,94715.41
2018-08-16T09:23:48.523Z,94718.65
2018-08-16T09:26:22.961Z,94717.78
2018-08-16T09:28:51.935Z,94713.65
2018-08-16T09:31:32.301Z,94725.84
2018-08-16T09:34:21.115Z,94716.34
2018-08-16T09:36:50.475Z,94716.76
2018-08-16T09:39:20.003Z,94711.45
2018-08-16T09:41:49.452Z,94703.55
2018-08-16T09:44:18.284Z,94701.50
2018-08-16T09:47:03.334Z,94704.31
2018-08-16T09:49:33.598Z,94700.69
2018-08-16T09:52:02.911Z,94707.34
2018-08-16T09:54:31.784Z,94704.86
2018-08-16T09:57:02.068Z,94707.19
2018-08-16T09:59:31.191Z,94701.86
2018-08-16T10:02:00.408Z,94699.86
2018-08-16T10:04:29.593Z,94698.09
2018-08-16T10:06:58.743Z,94699.25
2018-08-16T10:09:28.908Z,94696.73
2018-08-16T10:11:58.815Z,94694.14
2018-08-16T10:14:27.786Z,94691.38
2018-08-16T10:16:56.672Z,94691.69
2018-08-16T10:19:26.115Z,94689.81
2018-08-16T10:21:55.494Z,94682.87
2018-08-16T10:24:24.267Z,94686.73
2018-08-16T10:26:53.597Z,94684.09
2018-08-16T10:29:22.602Z,94669.19
2018-08-16T10:31:51.467Z,94667.19
2018-08-16T10:34:20.493Z,94650.41
2018-08-16T10:36:49.447Z,94670.66
2018-08-16T10:39:19.139Z,94669.23
2018-08-16T10:41:48.570Z,94661.17
2018-08-16T10:44:17.531Z,94664.47
2018-08-16T10:46:46.325Z,94662.62
2018-08-16T10:49:15.312Z,94666.03
2018-08-16T10:51:44.126Z,94668.10
2018-08-16T10:54:12.959Z,94658.45
2018-08-16T10:56:42.431Z,94649.60
2018-08-16T10:59:11.733Z,94652.27
2018-08-16T11:01:40.680Z,94648.45
2018-08-16T11:04:09.818Z,94649.72
2018-08-16T11:06:38.782Z,94658.37
2018-08-16T11:09:09.422Z,94646.92
2018-08-16T11:11:39.146Z,94650.14
2018-08-16T11:14:08.171Z,94649.39
2018-08-16T11:16:36.878Z,94646.45
2018-08-16T11:19:05.995Z,94652.31
2018-08-16T11:21:34.777Z,94641.13
2018-08-16T11:24:03.899Z,94637.92
2018-08-16T11:26:32.910Z,94598.09
2018-08-16T11:29:01.894Z,94650.38
2018-08-16T11:31:30.574Z,94644.86
2018-08-16T11:33:59.864Z,94640.99
2018-08-16T11:36:29.118Z,94646.41
2018-08-16T11:38:58.178Z,94630.56
2018-08-16T11:41:27.394Z,94634.98
2018-08-16T11:43:57.178Z,94630.95
2018-08-16T11:46:25.900Z,94632.45
2018-08-16T11:48:54.850Z,94630.17
2018-08-16T11:51:23.935Z,94627.81
2018-08-16T11:53:52.951Z,94620.30
2018-08-16T11:56:22.079Z,94622.04
2018-08-16T11:58:50.996Z,94626.87
2018-08-16T12:01:20.033Z,94624.74
2018-08-16T12:03:49.580Z,94626.66
2018-08-16T12:06:18.273Z,94620.52
2018-08-16T12:08:47.387Z,94624.16
2018-08-16T12:11:16.689Z,94625.27
2018-08-16T12:13:45.395Z,94625.91
2018-08-16T12:16:14.239Z,94619.66
2018-08-16T12:18:43.019Z,94614.00
2018-08-16T12:21:12.147Z,94607.84
2018-08-16T12:23:41.247Z,94610.48
2018-08-16T12:26:10.034Z,94602.00
2018-08-16T12:28:39.051Z,94614.79
2018-08-16T12:31:08.162Z,94615.31
2018-08-16T12:33:37.388Z,94600.38
2018-08-16T12:36:06.978Z,94602.66
2018-08-16T12:38:35.921Z,94599.55
2018-08-16T12:41:05.405Z,94590.40
2018-08-16T12:43:36.054Z,94602.27
2018-08-16T12:46:05.179Z,94599.63
2018-08-16T12:48:34.202Z,94595.34
2018-08-16T12:51:03.004Z,94592.72
2018-08-16T12:53:32.236Z,94589.57
2018-08-16T12:56:01.517Z,94586.00
2018-08-16T12:58:30.381Z,94585.64
2018-08-16T13:00:59.138Z,94590.13
2018-08-16T13:03:28.386Z,94592.02
2018-08-16T13:05:57.478Z,94591.86
2018-08-16T13:08:26.701Z,94584.49
2018-08-16T13:10:55.953Z,94582.31
2018-08-16T13:13:24.723Z,94566.34
2018-08-16T13:15:53.653Z,94572.16
2018-08-16T13:18:22.401Z,94574.11
2018-08-16T13:20:51.662Z,94572.70
2018-08-16T13:23:20.544Z,94577.52
2018-08-16T13:25:49.536Z,94579.20
2018-08-16T13:28:18.630Z,94576.44
2018-08-16T13:30:47.698Z,94568.02
2018-08-16T13:33:16.690Z,94574.85
2018-08-16T13:35:46.227Z,94557.55
2018-08-16T13:38:15.120Z,94581.71
2018-08-16T13:40:44.133Z,94573.56
2018-08-16T13:43:13.319Z,94563.88
2018-08-16T13:45:41.999Z,94569.88
2018-08-16T13:48:10.759Z,94567.50
2018-08-16T13:50:40.228Z,94562.61
2018-08-16T13:53:09.402Z,94559.66
2018-08-16T13:55:38.499Z,94550.45
2018-08-16T13:58:07.910Z,94559.44
2018-08-16T14:00:37.134Z,94551.72
2018-08-16T14:03:06.176Z,94548.58
2018-08-16T14:05:37.003Z,94547.84
2018-08-16T14:08:06.130Z,94550.18
2018-08-16T14:10:35.755Z,94553.02
2018-08-16T14:13:04.675Z,94553.27
2018-08-16T14:15:33.563Z,94557.22
2018-08-16T14:18:02.863Z,94546.88
2018-08-16T14:20:31.814Z,94552.61
2018-08-16T14:23:00.600Z,94547.75
2018-08-16T14:25:29.945Z,94558.63
2018-08-16T14:27:58.912Z,94554.55
2018-08-16T14:30:27.935Z,94552.72
2018-08-16T14:32:57.343Z,94556.80
2018-08-16T14:35:26.235Z,94552.55
2018-08-16T14:37:55.115Z,94555.88
2018-08-16T14:40:24.380Z,94552.49
2018-08-16T14:42:53.342Z,94558.50
2018-08-16T14:45:22.448Z,94558.08
2018-08-16T14:47:52.011Z,94560.64
2018-08-16T14:50:21.174Z,94552.70
2018-08-16T14:52:50.156Z,94564.96
2018-08-16T14:55:19.820Z,94555.54
2018-08-16T14:57:48.580Z,94563.47
2018-08-16T15:00:17.895Z,94557.16
2018-08-16T15:02:46.974Z,94549.31
2018-08-16T15:05:16.000Z,94553.41
2018-08-16T15:07:45.053Z,94551.50
2018-08-16T15:10:14.217Z,94557.52
2018-08-16T15:12:42.918Z,94550.78
2018-08-16T15:15:11.739Z,94551.09
2018-08-16T15:17:40.867Z,94552.06
2018-08-16T15:20:10.699Z,94552.68
2018-08-16T15:22:39.639Z,94551.64
2018-08-16T15:25:09.268Z,94555.80
2018-08-16T15:27:38.093Z,94544.72
2018-08-16T15:30:07.956Z,94550.64
2018-08-16T15:32:37.286Z,94553.29
2018-08-16T15:35:06.411Z,94545.09
2018-08-16T15:37:35.381Z,94549.94
2018-08-16T15:40:04.483Z,94553.08
2018-08-16T15:42:33.252Z,94541.20
2018-08-16T15:45:02.065Z,94547.03
2018-08-16T15:47:31.534Z,94541.35
2018-08-16T15:50:00.738Z,94543.86
2018-08-16T15:52:29.761Z,94544.41
2018-08-16T15:54:59.037Z,94542.03
2018-08-16T15:57:28.180Z,94539.47
2018-08-16T15:59:57.015Z,94537.89
2018-08-16T16:02:25.959Z,94528.45
2018-08-16T16:04:54.628Z,94547.97
2018-08-16T16:07:23.505Z,94550.20
2018-08-16T16:09:52.663Z,94547.30
2018-08-16T16:12:21.343Z,94551.92
2018-08-16T16:14:50.128Z,94553.26
2018-08-16T16:17:19.181Z,94549.73
2018-08-16T16:19:48.150Z,94555.81
2018-08-16T16:22:17.128Z,94550.61
2018-08-16T16:24:46.190Z,94553.24
2018-08-16T16:27:15.167Z,94550.74
2018-08-16T16:29:43.834Z,94552.84
2018-08-16T16:32:12.662Z,94556.72
2018-08-16T16:34:41.475Z,94558.44
2018-08-16T16:37:10.188Z,94554.70
2018-08-16T16:39:39.271Z,94560.11
2018-08-16T16:42:08.194Z,94556.48
2018-08-16T16:44:37.195Z,94556.88
2018-08-16T16:47:07.331Z,94560.39
2018-08-16T16:49:36.183Z,94561.55
2018-08-16T16:52:05.203Z,94558.03
2018-08-16T16:54:34.426Z,94563.34
2018-08-16T16:57:03.589Z,94565.06
2018-08-16T16:59:32.327Z,94563.88
2018-08-16T17:02:01.856Z,94564.88
2018-08-16T17:04:30.867Z,94558.70
2018-08-16T17:06:59.646Z,94564.16
2018-08-16T17:09:28.792Z,94580.91
2018-08-16T17:11:57.842Z,94574.28
2018-08-16T17:14:26.939Z,94570.85
2018-08-16T17:16:56.445Z,94577.10
2018-08-16T17:19:25.415Z,94573.80
2018-08-16T17:21:54.162Z,94577.55
2018-08-16T17:24:23.149Z,94580.30
2018-08-16T17:26:52.000Z,94590.09
2018-08-16T17:29:20.794Z,94587.48
2018-08-16T17:31:49.667Z,94590.39
2018-08-16T17:34:18.342Z,94594.99
2018-08-16T17:36:47.111Z,94594.12
2018-08-16T17:39:16.025Z,94600.14
2018-08-16T17:41:44.887Z,94589.91
2018-08-16T17:44:13.806Z,94599.00
2018-08-16T17:46:43.060Z,94603.01
2018-08-16T17:49:12.219Z,94596.44
2018-08-16T17:51:40.817Z,94599.28
2018-08-16T17:54:09.506Z,94608.50
2018-08-16T17:56:38.222Z,94605.49
2018-08-16T17:59:07.086Z,94608.66
2018-08-16T18:01:36.695Z,94606.18
2018-08-16T18:04:05.659Z,94612.14
2018-08-16T18:06:34.427Z,94616.20
2018-08-16T18:09:03.867Z,94615.73
2018-08-16T18:11:32.743Z,94625.89
2018-08-16T18:14:01.853Z,94622.29
2018-08-16T18:16:31.155Z,94629.71
2018-08-16T18:19:00.194Z,94627.66
2018-08-16T18:21:29.339Z,94631.36
2018-08-16T18:23:58.712Z,94635.63
2018-08-16T18:26:28.166Z,94641.54
2018-08-16T18:28:57.473Z,94640.21
2018-08-16T18:31:27.179Z,94637.44
2018-08-16T18:33:55.947Z,94637.52
2018-08-16T18:36:24.904Z,94643.55
2018-08-16T18:38:54.199Z,94643.87
2018-08-16T18:41:23.304Z,94646.34
2018-08-16T18:43:52.828Z,94642.19
2018-08-16T18:46:22.816Z,94648.20
2018-08-16T18:48:51.842Z,94641.97
2018-08-16T18:51:20.683Z,94645.06
2018-08-16T18:53:49.802Z,94650.14
2018-08-16T18:56:18.864Z,94658.22
2018-08-16T18:58:47.794Z,94646.09
2018-08-16T19:01:17.122Z,94648.75
2018-08-16T19:03:45.810Z,94652.48
2018-08-16T19:06:14.543Z,94651.70
2018-08-16T19:08:43.554Z,94661.62
2018-08-16T19:11:12.648Z,94658.05
2018-08-16T19:13:41.526Z,94666.08
2018-08-16T19:16:10.362Z,94660.11
2018-08-16T19:18:39.099Z,94653.53
2018-08-16T19:21:07.788Z,94656.48
2018-08-16T19:23:36.724Z,94657.58
2018-08-16T19:26:05.556Z,94651.28
2018-08-16T19:28:34.500Z,94646.33
2018-08-16T19:31:03.679Z,94650.79
2018-08-16T19:33:32.414Z,94651.23
2018-08-16T19:36:01.187Z,94651.44
2018-08-16T19:38:30.375Z,94648.02
2018-08-16T19:40:59.454Z,94654.81
2018-08-16T19:43:28.179Z,94654.98
2018-08-16T19:45:57.218Z,94655.28
2018-08-16T19:48:26.395Z,94651.13
2018-08-16T19:50:55.249Z,94660.61
2018-08-16T19:53:24.252Z,94653.49
2018-08-16T19:55:53.086Z,94593.62
2018-08-16T19:58:21.832Z,94656.50
2018-08-16T20:00:51.373Z,94658.31
2018-08-16T20:03:20.035Z,94658.53
2018-08-16T20:05:48.834Z,94659.38
2018-08-16T20:08:17.861Z,94662.81
2018-08-16T20:10:47.045Z,94660.61
2018-08-16T20:13:16.125Z,94656.56
2018-08-16T20:15:45.343Z,94658.73
2018-08-16T20:18:14.549Z,94654.28
2018-08-16T20:20:43.280Z,94659.23
2018-08-16T20:23:12.477Z,94664.65
2018-08-16T20:25:41.476Z,94662.72
2018-08-16T20:28:10.421Z,94665.78
2018-08-16T20:30:39.739Z,94670.30
2018-08-16T20:33:08.466Z,94674.65
2018-08-16T20:35:37.231Z,94672.62
2018-08-16T20:38:06.348Z,94669.08
2018-08-16T20:40:35.196Z,94674.65
2018-08-16T20:43:04.286Z,94671.14
2018-08-16T20:45:33.501Z,94678.12
2018-08-16T20:48:02.401Z,94678.52
2018-08-16T20:50:31.357Z,94682.88
2018-08-16T20:53:00.590Z,94679.49
2018-08-16T20:55:29.457Z,94683.33
2018-08-16T20:57:58.503Z,94685.29
2018-08-16T21:00:27.792Z,94686.13
2018-08-16T21:02:56.498Z,94689.84
2018-08-16T21:05:25.259Z,94683.98
2018-08-16T21:07:54.048Z,94686.44
2018-08-16T21:10:23.069Z,94685.96
2018-08-16T21:12:51.793Z,94685.89
2018-08-16T21:15:20.725Z,94682.14
2018-08-16T21:17:49.786Z,94682.58
2018-08-16T21:20:18.911Z,94676.59
2018-08-16T21:22:48.412Z,94675.70
2018-08-16T21:25:17.336Z,94677.55
2018-08-16T21:27:46.195Z,94684.87
2018-08-16T21:30:15.605Z,94679.09
2018-08-16T21:32:44.284Z,94686.85
2018-08-16T21:35:12.986Z,94682.34
2018-08-16T21:37:42.003Z,94692.82
2018-08-16T21:40:10.845Z,94698.70
2018-08-16T21:42:40.017Z,94696.45
2018-08-16T21:45:09.304Z,94696.25
2018-08-16T21:47:38.423Z,94697.66
2018-08-16T21:50:08.299Z,94694.45
2018-08-16T21:52:37.590Z,94690.45
2018-08-16T21:55:06.400Z,94690.08
2018-08-16T21:57:35.233Z,94692.95
2018-08-16T22:00:04.113Z,94690.67
2018-08-16T22:02:32.957Z,94700.62
2018-08-16T22:05:01.794Z,94698.96
2018-08-16T22:08:13.238Z,94697.94
2018-08-16T22:10:43.757Z,94690.31
2018-08-16T22:13:12.935Z,94688.47
2018-08-16T22:15:42.021Z,94689.52
2018-08-16T22:18:11.127Z,94692.05
2018-08-16T22:20:40.376Z,94690.20
2018-08-16T22:23:09.534Z,94682.22
2018-08-16T22:25:38.820Z,94688.30
2018-08-16T22:28:08.445Z,94691.06
2018-08-16T22:30:37.696Z,94685.91
2018-08-16T22:33:06.562Z,94690.46
2018-08-16T22:35:35.922Z,94692.23
2018-08-16T22:38:04.659Z,94695.89
2018-08-16T22:40:33.520Z,94694.86
2018-08-16T22:43:03.025Z,94692.34
2018-08-16T22:45:31.859Z,94699.67
2018-08-16T22:48:00.793Z,94693.81
2018-08-16T22:50:29.901Z,94700.41
2018-08-16T22:52:58.765Z,94689.64
2018-08-16T22:55:28.056Z,94695.59
2018-08-16T22:57:57.467Z,94696.50
2018-08-16T23:00:26.764Z,94696.78
2018-08-16T23:02:55.555Z,94701.26
2018-08-16T23:05:24.646Z,94698.52
2018-08-16T23:07:53.528Z,94695.60
2018-08-16T23:10:22.871Z,94697.03
2018-08-16T23:12:52.451Z,94699.25
2018-08-16T23:15:21.531Z,94701.48
2018-08-16T23:17:50.622Z,94696.03
2018-08-16T23:20:20.063Z,94697.40
2018-08-16T23:22:49.350Z,94702.41
2018-08-16T23:25:18.551Z,94692.61
2018-08-16T23:27:48.080Z,94690.75
2018-08-16T23:30:17.562Z,94692.00
2018-08-16T23:32:46.370Z,94700.92
2018-08-16T23:35:15.515Z,94696.30
2018-08-16T23:37:44.367Z,94694.59
2018-08-16T23:40:14.387Z,94700.39
2018-08-16T23:42:43.992Z,94702.53
2018-08-16T23:45:13.027Z,94694.84
2018-08-16T23:47:42.416Z,94687.30
2018-08-16T23:50:12.242Z,94689.02
2018-08-16T23:52:41.268Z,94694.95
2018-08-16T23:55:10.475Z,94705.36
2018-08-16T23:57:39.567Z,94711.87
